sensor_id;sensor_type;location;lat;lon;timestamp;pressure;altitude;pressure_sealevel;temperature;humidity
32197;BME280;18697;42.770;23.400;2024-03-29T00:00:05;95356.72;;;17.34;47.66
32197;BME280;18697;42.770;23.400;2024-03-29T00:02:31;95338.91;;;17.15;48.06
32197;BME280;18697;42.770;23.400;2024-03-29T00:04:56;95327.94;;;17.11;53.36
32197;BME280;18697;42.770;23.400;2024-03-29T00:07:21;95333.09;;;16.96;54.16
32197;BME280;18697;42.770;23.400;2024-03-29T00:09:47;95352.00;;;16.56;45.65
32197;BME280;18697;42.770;23.400;2024-03-29T00:12:12;95358.34;;;16.12;46.94
32197;BME280;18697;42.770;23.400;2024-03-29T00:14:37;95347.25;;;15.53;50.20
32197;BME280;18697;42.770;23.400;2024-03-29T00:17:04;95339.19;;;14.69;53.21
32197;BME280;18697;42.770;23.400;2024-03-29T00:19:30;95350.72;;;14.83;54.09
32197;BME280;18697;42.770;23.400;2024-03-29T00:21:55;95353.00;;;14.78;52.53
32197;BME280;18697;42.770;23.400;2024-03-29T00:24:20;95361.97;;;14.57;55.99
32197;BME280;18697;42.770;23.400;2024-03-29T00:26:46;95367.34;;;14.60;55.19
32197;BME280;18697;42.770;23.400;2024-03-29T00:29:11;95361.84;;;14.71;58.86
32197;BME280;18697;42.770;23.400;2024-03-29T00:31:37;95366.28;;;14.95;59.44
32197;BME280;18697;42.770;23.400;2024-03-29T00:34:02;95368.81;;;15.41;60.37
32197;BME280;18697;42.770;23.400;2024-03-29T00:36:27;95369.47;;;15.78;58.08
32197;BME280;18697;42.770;23.400;2024-03-29T00:38:53;95367.50;;;16.01;54.23
32197;BME280;18697;42.770;23.400;2024-03-29T00:41:18;95360.66;;;16.47;58.41
32197;BME280;18697;42.770;23.400;2024-03-29T00:43:43;95370.88;;;16.84;57.31
32197;BME280;18697;42.770;23.400;2024-03-29T00:46:09;95377.50;;;16.75;47.73
32197;BME280;18697;42.770;23.400;2024-03-29T00:48:34;95376.22;;;16.87;53.96
32197;BME280;18697;42.770;23.400;2024-03-29T00:50:59;95371.88;;;16.86;51.11
32197;BME280;18697;42.770;23.400;2024-03-29T00:53:25;95361.41;;;17.03;52.38
32197;BME280;18697;42.770;23.400;2024-03-29T00:55:50;95377.72;;;16.99;48.58
32197;BME280;18697;42.770;23.400;2024-03-29T00:58:15;95371.09;;;16.24;48.62
32197;BME280;18697;42.770;23.400;2024-03-29T01:00:40;95354.56;;;16.71;58.29
32197;BME280;18697;42.770;23.400;2024-03-29T01:03:06;95367.31;;;16.78;55.04
32197;BME280;18697;42.770;23.400;2024-03-29T01:05:31;95359.63;;;16.95;55.37
32197;BME280;18697;42.770;23.400;2024-03-29T01:07:56;95366.66;;;17.29;55.97
32197;BME280;18697;42.770;23.400;2024-03-29T01:10:22;95358.22;;;17.35;54.38
32197;BME280;18697;42.770;23.400;2024-03-29T01:12:47;95360.97;;;17.52;52.76
32197;BME280;18697;42.770;23.400;2024-03-29T01:15:13;95365.28;;;17.69;52.52
32197;BME280;18697;42.770;23.400;2024-03-29T01:17:38;95366.06;;;17.59;47.92
32197;BME280;18697;42.770;23.400;2024-03-29T01:20:04;95371.22;;;17.44;51.58
32197;BME280;18697;42.770;23.400;2024-03-29T01:22:29;95364.81;;;17.49;53.54
32197;BME280;18697;42.770;23.400;2024-03-29T01:24:55;95363.78;;;17.57;53.01
32197;BME280;18697;42.770;23.400;2024-03-29T01:27:21;95362.19;;;17.79;52.40
32197;BME280;18697;42.770;23.400;2024-03-29T01:29:46;95370.28;;;17.88;51.14
32197;BME280;18697;42.770;23.400;2024-03-29T01:32:11;95377.03;;;17.62;51.35
32197;BME280;18697;42.770;23.400;2024-03-29T01:34:37;95384.00;;;17.39;47.18
32197;BME280;18697;42.770;23.400;2024-03-29T01:37:02;95387.25;;;17.54;49.68
32197;BME280;18697;42.770;23.400;2024-03-29T01:39:27;95375.59;;;17.28;52.11
32197;BME280;18697;42.770;23.400;2024-03-29T01:41:56;95382.34;;;16.86;50.40
32197;BME280;18697;42.770;23.400;2024-03-29T01:44:22;95372.38;;;16.57;54.33
32197;BME280;18697;42.770;23.400;2024-03-29T01:46:47;95365.25;;;16.28;56.20
32197;BME280;18697;42.770;23.400;2024-03-29T01:49:13;95375.63;;;15.99;54.50
32197;BME280;18697;42.770;23.400;2024-03-29T01:51:39;95378.59;;;15.68;54.89
32197;BME280;18697;42.770;23.400;2024-03-29T01:54:06;95384.06;;;15.34;54.91
32197;BME280;18697;42.770;23.400;2024-03-29T01:56:32;95389.13;;;15.30;58.91
32197;BME280;18697;42.770;23.400;2024-03-29T01:58:58;95395.97;;;15.29;57.15
32197;BME280;18697;42.770;23.400;2024-03-29T02:01:26;95399.31;;;15.33;56.02
32197;BME280;18697;42.770;23.400;2024-03-29T02:03:51;95405.69;;;14.97;51.54
32197;BME280;18697;42.770;23.400;2024-03-29T02:06:18;95403.63;;;14.92;55.07
32197;BME280;18697;42.770;23.400;2024-03-29T02:08:43;95398.47;;;14.79;56.15
32197;BME280;18697;42.770;23.400;2024-03-29T02:11:09;95416.75;;;14.74;52.28
32197;BME280;18697;42.770;23.400;2024-03-29T02:13:35;95416.84;;;14.91;57.57
32197;BME280;18697;42.770;23.400;2024-03-29T02:16:01;95412.31;;;14.62;52.71
32197;BME280;18697;42.770;23.400;2024-03-29T02:18:26;95413.63;;;14.41;51.74
32197;BME280;18697;42.770;23.400;2024-03-29T02:20:51;95431.47;;;14.43;53.03
32197;BME280;18697;42.770;23.400;2024-03-29T02:23:26;95436.34;;;14.49;52.56
32197;BME280;18697;42.770;23.400;2024-03-29T02:25:53;95428.88;;;14.40;52.42
32197;BME280;18697;42.770;23.400;2024-03-29T02:28:20;95442.56;;;14.38;51.89
32197;BME280;18697;42.770;23.400;2024-03-29T02:30:47;95451.09;;;14.49;53.35
32197;BME280;18697;42.770;23.400;2024-03-29T02:33:12;95450.47;;;14.65;55.73
32197;BME280;18697;42.770;23.400;2024-03-29T02:35:38;95454.88;;;14.77;55.41
32197;BME280;18697;42.770;23.400;2024-03-29T02:38:03;95464.81;;;15.16;58.41
32197;BME280;18697;42.770;23.400;2024-03-29T02:40:28;95468.53;;;15.01;52.37
32197;BME280;18697;42.770;23.400;2024-03-29T02:42:54;95475.22;;;14.78;51.31
32197;BME280;18697;42.770;23.400;2024-03-29T02:45:19;95483.16;;;12.97;54.85
32197;BME280;18697;42.770;23.400;2024-03-29T02:47:44;95483.50;;;12.40;57.01
32197;BME280;18697;42.770;23.400;2024-03-29T02:50:12;95493.06;;;11.71;58.78
32197;BME280;18697;42.770;23.400;2024-03-29T02:52:38;95486.53;;;11.74;61.58
32197;BME280;18697;42.770;23.400;2024-03-29T02:55:04;95499.09;;;11.45;61.13
32197;BME280;18697;42.770;23.400;2024-03-29T02:57:29;95496.41;;;11.03;62.62
32197;BME280;18697;42.770;23.400;2024-03-29T02:59:55;95512.00;;;11.58;67.84
32197;BME280;18697;42.770;23.400;2024-03-29T03:02:20;95510.59;;;12.54;66.60
32197;BME280;18697;42.770;23.400;2024-03-29T03:04:45;95523.16;;;13.23;69.32
32197;BME280;18697;42.770;23.400;2024-03-29T03:07:11;95528.22;;;13.60;68.29
32197;BME280;18697;42.770;23.400;2024-03-29T03:09:55;95536.44;;;14.50;65.37
32197;BME280;18697;42.770;23.400;2024-03-29T03:12:39;95525.22;;;14.24;59.73
32197;BME280;18697;42.770;23.400;2024-03-29T03:15:04;95533.72;;;15.13;63.49
32197;BME280;18697;42.770;23.400;2024-03-29T03:17:30;95525.44;;;15.30;60.64
32197;BME280;18697;42.770;23.400;2024-03-29T03:19:56;95531.28;;;16.12;62.20
32197;BME280;18697;42.770;23.400;2024-03-29T03:22:22;95531.34;;;16.39;61.25
32197;BME280;18697;42.770;23.400;2024-03-29T03:24:47;95545.19;;;16.60;57.08
32197;BME280;18697;42.770;23.400;2024-03-29T03:27:13;95540.91;;;16.75;53.29
32197;BME280;18697;42.770;23.400;2024-03-29T03:29:39;95542.84;;;16.41;58.43
32197;BME280;18697;42.770;23.400;2024-03-29T03:32:05;95551.88;;;16.73;53.65
32197;BME280;18697;42.770;23.400;2024-03-29T03:34:30;95555.25;;;17.00;55.13
32197;BME280;18697;42.770;23.400;2024-03-29T03:36:56;95546.47;;;16.59;56.16
32197;BME280;18697;42.770;23.400;2024-03-29T03:39:21;95562.13;;;17.21;58.78
32197;BME280;18697;42.770;23.400;2024-03-29T03:41:47;95573.84;;;17.59;55.39
32197;BME280;18697;42.770;23.400;2024-03-29T03:44:12;95590.47;;;17.68;54.22
32197;BME280;18697;42.770;23.400;2024-03-29T03:46:38;95589.69;;;17.62;54.94
32197;BME280;18697;42.770;23.400;2024-03-29T03:49:03;95601.94;;;17.59;52.49
32197;BME280;18697;42.770;23.400;2024-03-29T03:51:28;95590.97;;;17.55;52.78
32197;BME280;18697;42.770;23.400;2024-03-29T03:53:54;95602.72;;;17.65;53.71
32197;BME280;18697;42.770;23.400;2024-03-29T03:56:19;95606.06;;;17.69;53.54
32197;BME280;18697;42.770;23.400;2024-03-29T03:58:45;95612.44;;;17.69;49.80
32197;BME280;18697;42.770;23.400;2024-03-29T04:01:10;95601.44;;;17.55;53.20
32197;BME280;18697;42.770;23.400;2024-03-29T04:03:36;95623.38;;;17.51;54.56
32197;BME280;18697;42.770;23.400;2024-03-29T04:06:04;95622.09;;;17.46;55.17
32197;BME280;18697;42.770;23.400;2024-03-29T04:08:30;95622.88;;;17.41;52.41
32197;BME280;18697;42.770;23.400;2024-03-29T04:10:55;95628.97;;;17.28;51.56
32197;BME280;18697;42.770;23.400;2024-03-29T04:13:22;95636.63;;;17.05;54.69
32197;BME280;18697;42.770;23.400;2024-03-29T04:15:47;95637.72;;;17.75;55.87
32197;BME280;18697;42.770;23.400;2024-03-29T04:18:13;95641.78;;;17.63;54.14
32197;BME280;18697;42.770;23.400;2024-03-29T04:20:38;95647.38;;;17.96;54.44
32197;BME280;18697;42.770;23.400;2024-03-29T04:23:05;95645.34;;;17.97;52.58
32197;BME280;18697;42.770;23.400;2024-03-29T04:25:30;95647.59;;;18.21;53.13
32197;BME280;18697;42.770;23.400;2024-03-29T04:27:56;95656.31;;;18.00;51.91
32197;BME280;18697;42.770;23.400;2024-03-29T04:30:21;95655.53;;;18.17;53.08
32197;BME280;18697;42.770;23.400;2024-03-29T04:32:47;95658.84;;;18.21;52.36
32197;BME280;18697;42.770;23.400;2024-03-29T04:35:12;95654.97;;;18.35;49.87
32197;BME280;18697;42.770;23.400;2024-03-29T04:37:38;95673.16;;;18.06;47.75
32197;BME280;18697;42.770;23.400;2024-03-29T04:40:03;95671.16;;;17.73;51.52
32197;BME280;18697;42.770;23.400;2024-03-29T04:42:29;95680.47;;;17.14;48.99
32197;BME280;18697;42.770;23.400;2024-03-29T04:44:54;95667.97;;;17.09;53.01
32197;BME280;18697;42.770;23.400;2024-03-29T04:47:20;95682.56;;;17.30;53.72
32197;BME280;18697;42.770;23.400;2024-03-29T04:49:45;95678.53;;;17.54;54.83
32197;BME280;18697;42.770;23.400;2024-03-29T04:52:10;95692.59;;;17.93;52.69
32197;BME280;18697;42.770;23.400;2024-03-29T04:54:36;95691.81;;;18.15;52.31
32197;BME280;18697;42.770;23.400;2024-03-29T04:57:03;95707.38;;;18.44;47.66
32197;BME280;18697;42.770;23.400;2024-03-29T04:59:32;95709.31;;;18.77;49.98
32197;BME280;18697;42.770;23.400;2024-03-29T05:01:58;95708.03;;;18.83;47.60
32197;BME280;18697;42.770;23.400;2024-03-29T05:04:24;95723.94;;;18.64;44.91
32197;BME280;18697;42.770;23.400;2024-03-29T05:06:53;95714.81;;;17.74;46.80
32197;BME280;18697;42.770;23.400;2024-03-29T05:09:18;95707.91;;;18.03;52.55
32197;BME280;18697;42.770;23.400;2024-03-29T05:11:44;95714.31;;;17.70;45.94
32197;BME280;18697;42.770;23.400;2024-03-29T05:14:09;95731.28;;;17.22;44.25
32197;BME280;18697;42.770;23.400;2024-03-29T05:16:35;95736.16;;;16.67;49.96
32197;BME280;18697;42.770;23.400;2024-03-29T05:19:00;95729.22;;;16.63;53.79
32197;BME280;18697;42.770;23.400;2024-03-29T05:21:26;95731.75;;;17.03;55.07
32197;BME280;18697;42.770;23.400;2024-03-29T05:23:51;95731.25;;;17.11;55.03
32197;BME280;18697;42.770;23.400;2024-03-29T05:26:17;95740.16;;;17.09;51.81
32197;BME280;18697;42.770;23.400;2024-03-29T05:28:42;95737.34;;;17.09;52.14
32197;BME280;18697;42.770;23.400;2024-03-29T05:31:13;95751.44;;;15.92;49.66
32197;BME280;18697;42.770;23.400;2024-03-29T05:33:42;95738.00;;;16.39;57.68
32197;BME280;18697;42.770;23.400;2024-03-29T05:36:08;95738.72;;;17.36;56.07
32197;BME280;18697;42.770;23.400;2024-03-29T05:38:39;95744.97;;;18.01;54.66
32197;BME280;18697;42.770;23.400;2024-03-29T05:41:04;95748.53;;;18.08;50.99
32197;BME280;18697;42.770;23.400;2024-03-29T05:43:30;95745.41;;;17.50;48.17
32197;BME280;18697;42.770;23.400;2024-03-29T05:45:56;95732.28;;;17.19;49.04
32197;BME280;18697;42.770;23.400;2024-03-29T05:48:22;95735.06;;;17.02;57.26
32197;BME280;18697;42.770;23.400;2024-03-29T05:50:47;95733.59;;;17.29;49.14
32197;BME280;18697;42.770;23.400;2024-03-29T05:53:13;95746.94;;;17.51;54.31
32197;BME280;18697;42.770;23.400;2024-03-29T05:55:38;95741.91;;;18.22;54.09
32197;BME280;18697;42.770;23.400;2024-03-29T05:58:03;95746.41;;;18.81;52.07
32197;BME280;18697;42.770;23.400;2024-03-29T06:00:31;95746.53;;;19.22;51.83
32197;BME280;18697;42.770;23.400;2024-03-29T06:02:58;95757.91;;;19.52;50.52
32197;BME280;18697;42.770;23.400;2024-03-29T06:05:23;95755.75;;;19.69;47.97
32197;BME280;18697;42.770;23.400;2024-03-29T06:07:49;95762.00;;;19.92;47.35
32197;BME280;18697;42.770;23.400;2024-03-29T06:10:14;95760.78;;;19.82;46.92
32197;BME280;18697;42.770;23.400;2024-03-29T06:12:40;95755.38;;;19.89;48.04
32197;BME280;18697;42.770;23.400;2024-03-29T06:15:06;95762.38;;;19.77;46.76
32197;BME280;18697;42.770;23.400;2024-03-29T06:17:50;95760.81;;;20.12;47.42
32197;BME280;18697;42.770;23.400;2024-03-29T06:20:15;95766.41;;;19.87;46.09
32197;BME280;18697;42.770;23.400;2024-03-29T06:22:41;95763.81;;;19.89;48.27
32197;BME280;18697;42.770;23.400;2024-03-29T06:25:07;95767.59;;;19.56;45.93
32197;BME280;18697;42.770;23.400;2024-03-29T06:27:36;95766.13;;;19.91;50.39
32197;BME280;18697;42.770;23.400;2024-03-29T06:30:05;95775.69;;;20.12;50.09
32197;BME280;18697;42.770;23.400;2024-03-29T06:32:31;95769.31;;;20.42;49.35
32197;BME280;18697;42.770;23.400;2024-03-29T06:34:58;95769.16;;;20.58;48.14
32197;BME280;18697;42.770;23.400;2024-03-29T06:37:23;95784.38;;;20.50;44.80
32197;BME280;18697;42.770;23.400;2024-03-29T06:39:51;95783.97;;;20.34;43.96
32197;BME280;18697;42.770;23.400;2024-03-29T06:42:16;95787.41;;;20.57;45.09
32197;BME280;18697;42.770;23.400;2024-03-29T06:44:42;95792.06;;;20.79;43.90
32197;BME280;18697;42.770;23.400;2024-03-29T06:47:08;95799.16;;;20.61;41.27
32197;BME280;18697;42.770;23.400;2024-03-29T06:49:33;95791.66;;;20.70;42.16
32197;BME280;18697;42.770;23.400;2024-03-29T06:51:59;95776.88;;;21.07;46.40
32197;BME280;18697;42.770;23.400;2024-03-29T06:54:29;95782.59;;;21.25;41.37
32197;BME280;18697;42.770;23.400;2024-03-29T06:56:55;95770.00;;;21.26;44.85
32197;BME280;18697;42.770;23.400;2024-03-29T06:59:21;95774.31;;;21.52;44.58
32197;BME280;18697;42.770;23.400;2024-03-29T07:01:47;95773.38;;;21.44;43.47
32197;BME280;18697;42.770;23.400;2024-03-29T07:04:19;95778.88;;;21.12;44.27
32197;BME280;18697;42.770;23.400;2024-03-29T07:06:45;95781.88;;;20.95;43.94
32197;BME280;18697;42.770;23.400;2024-03-29T07:09:15;95780.91;;;21.11;43.83
32197;BME280;18697;42.770;23.400;2024-03-29T07:11:41;95778.81;;;21.17;44.25
32197;BME280;18697;42.770;23.400;2024-03-29T07:14:06;95793.41;;;21.21;42.49
32197;BME280;18697;42.770;23.400;2024-03-29T07:16:32;95778.78;;;21.42;45.54
32197;BME280;18697;42.770;23.400;2024-03-29T07:18:57;95791.00;;;21.31;41.82
32197;BME280;18697;42.770;23.400;2024-03-29T07:21:23;95772.34;;;21.22;41.60
32197;BME280;18697;42.770;23.400;2024-03-29T07:23:49;95784.03;;;21.08;41.88
32197;BME280;18697;42.770;23.400;2024-03-29T07:26:14;95767.56;;;21.12;45.53
32197;BME280;18697;42.770;23.400;2024-03-29T07:28:39;95777.25;;;21.41;43.46
32197;BME280;18697;42.770;23.400;2024-03-29T07:31:06;95789.09;;;21.58;41.71
32197;BME280;18697;42.770;23.400;2024-03-29T07:33:32;95772.84;;;21.45;41.10
32197;BME280;18697;42.770;23.400;2024-03-29T07:35:59;95785.06;;;21.53;40.22
32197;BME280;18697;42.770;23.400;2024-03-29T07:38:24;95789.25;;;21.47;39.42
32197;BME280;18697;42.770;23.400;2024-03-29T07:40:50;95772.06;;;21.26;40.59
32197;BME280;18697;42.770;23.400;2024-03-29T07:43:16;95767.25;;;21.77;43.90
32197;BME280;18697;42.770;23.400;2024-03-29T07:45:42;95779.94;;;21.89;38.38
32197;BME280;18697;42.770;23.400;2024-03-29T07:48:18;95781.56;;;21.47;40.12
32197;BME280;18697;42.770;23.400;2024-03-29T07:50:45;95770.47;;;21.49;41.54
32197;BME280;18697;42.770;23.400;2024-03-29T07:53:10;95761.97;;;21.68;40.74
32197;BME280;18697;42.770;23.400;2024-03-29T07:55:38;95792.22;;;21.92;38.22
32197;BME280;18697;42.770;23.400;2024-03-29T07:58:04;95798.34;;;21.58;36.54
32197;BME280;18697;42.770;23.400;2024-03-29T08:00:33;95800.09;;;21.43;38.23
32197;BME280;18697;42.770;23.400;2024-03-29T08:02:59;95798.03;;;21.19;36.90
32197;BME280;18697;42.770;23.400;2024-03-29T08:05:25;95798.28;;;21.21;38.05
32197;BME280;18697;42.770;23.400;2024-03-29T08:07:50;95778.56;;;21.40;38.57
32197;BME280;18697;42.770;23.400;2024-03-29T08:10:16;95788.09;;;21.74;37.68
32197;BME280;18697;42.770;23.400;2024-03-29T08:12:41;95786.34;;;21.71;37.31
32197;BME280;18697;42.770;23.400;2024-03-29T08:15:07;95773.34;;;21.62;39.46
32197;BME280;18697;42.770;23.400;2024-03-29T08:17:33;95761.28;;;21.62;37.38
32197;BME280;18697;42.770;23.400;2024-03-29T08:19:59;95775.56;;;21.70;38.19
32197;BME280;18697;42.770;23.400;2024-03-29T08:22:24;95771.22;;;21.87;38.01
32197;BME280;18697;42.770;23.400;2024-03-29T08:24:49;95771.69;;;21.91;37.13
32197;BME280;18697;42.770;23.400;2024-03-29T08:27:15;95775.06;;;22.09;38.24
32197;BME280;18697;42.770;23.400;2024-03-29T08:29:43;95772.38;;;22.16;39.71
32197;BME280;18697;42.770;23.400;2024-03-29T08:32:09;95763.00;;;22.53;36.96
32197;BME280;18697;42.770;23.400;2024-03-29T08:34:38;95771.25;;;22.51;36.93
32197;BME280;18697;42.770;23.400;2024-03-29T08:37:03;95773.03;;;22.68;36.38
32197;BME280;18697;42.770;23.400;2024-03-29T08:39:30;95763.19;;;23.01;36.42
32197;BME280;18697;42.770;23.400;2024-03-29T08:41:55;95752.38;;;23.25;35.68
32197;BME280;18697;42.770;23.400;2024-03-29T08:44:21;95762.84;;;23.57;36.07
32197;BME280;18697;42.770;23.400;2024-03-29T08:46:46;95775.47;;;23.69;33.67
32197;BME280;18697;42.770;23.400;2024-03-29T08:49:11;95755.84;;;23.71;34.88
32197;BME280;18697;42.770;23.400;2024-03-29T08:51:37;95766.13;;;23.21;33.84
32197;BME280;18697;42.770;23.400;2024-03-29T08:54:02;95751.41;;;22.25;35.54
32197;BME280;18697;42.770;23.400;2024-03-29T08:56:33;95753.69;;;22.40;34.18
32197;BME280;18697;42.770;23.400;2024-03-29T08:59:02;95747.19;;;22.45;36.86
32197;BME280;18697;42.770;23.400;2024-03-29T09:01:32;95726.31;;;22.61;36.50
32197;BME280;18697;42.770;23.400;2024-03-29T09:03:58;95733.75;;;23.04;34.94
32197;BME280;18697;42.770;23.400;2024-03-29T09:06:23;95735.88;;;22.45;33.54
32197;BME280;18697;42.770;23.400;2024-03-29T09:08:48;95741.84;;;22.28;36.35
32197;BME280;18697;42.770;23.400;2024-03-29T09:11:14;95730.91;;;22.77;36.81
32197;BME280;18697;42.770;23.400;2024-03-29T09:13:39;95738.56;;;23.09;34.64
32197;BME280;18697;42.770;23.400;2024-03-29T09:16:05;95737.69;;;23.14;33.26
32197;BME280;18697;42.770;23.400;2024-03-29T09:18:30;95720.81;;;22.82;34.90
32197;BME280;18697;42.770;23.400;2024-03-29T09:20:59;95732.13;;;22.82;34.47
32197;BME280;18697;42.770;23.400;2024-03-29T09:23:25;95734.41;;;23.10;34.35
32197;BME280;18697;42.770;23.400;2024-03-29T09:25:53;95733.22;;;23.05;33.80
32197;BME280;18697;42.770;23.400;2024-03-29T09:28:19;95735.63;;;22.88;33.67
32197;BME280;18697;42.770;23.400;2024-03-29T09:30:46;95731.56;;;23.10;32.34
32197;BME280;18697;42.770;23.400;2024-03-29T09:33:12;95707.25;;;23.54;34.78
32197;BME280;18697;42.770;23.400;2024-03-29T09:35:37;95720.56;;;23.06;33.86
32197;BME280;18697;42.770;23.400;2024-03-29T09:38:02;95719.63;;;22.90;32.09
32197;BME280;18697;42.770;23.400;2024-03-29T09:40:29;95710.53;;;23.32;32.80
32197;BME280;18697;42.770;23.400;2024-03-29T09:43:02;95703.53;;;23.80;33.11
32197;BME280;18697;42.770;23.400;2024-03-29T09:45:37;95701.50;;;24.22;31.83
32197;BME280;18697;42.770;23.400;2024-03-29T09:48:07;95709.75;;;23.78;31.18
32197;BME280;18697;42.770;23.400;2024-03-29T09:50:34;95693.75;;;24.22;32.85
32197;BME280;18697;42.770;23.400;2024-03-29T09:53:05;95688.09;;;24.43;32.95
32197;BME280;18697;42.770;23.400;2024-03-29T09:55:33;95689.00;;;24.67;33.03
32197;BME280;18697;42.770;23.400;2024-03-29T09:57:59;95694.03;;;24.81;32.40
32197;BME280;18697;42.770;23.400;2024-03-29T10:00:27;95688.22;;;25.15;32.31
32197;BME280;18697;42.770;23.400;2024-03-29T10:02:56;95694.94;;;25.41;32.05
32197;BME280;18697;42.770;23.400;2024-03-29T10:05:26;95701.38;;;25.41;29.23
32197;BME280;18697;42.770;23.400;2024-03-29T10:07:52;95688.34;;;25.53;30.87
32197;BME280;18697;42.770;23.400;2024-03-29T10:10:17;95688.38;;;25.61;28.56
32197;BME280;18697;42.770;23.400;2024-03-29T10:12:43;95690.19;;;25.79;28.71
32197;BME280;18697;42.770;23.400;2024-03-29T10:15:08;95701.84;;;25.17;29.05
32197;BME280;18697;42.770;23.400;2024-03-29T10:17:37;95696.31;;;25.55;28.84
32197;BME280;18697;42.770;23.400;2024-03-29T10:20:04;95686.94;;;25.75;30.63
32197;BME280;18697;42.770;23.400;2024-03-29T10:22:35;95691.53;;;25.94;30.50
32197;BME280;18697;42.770;23.400;2024-03-29T10:25:01;95681.50;;;26.08;29.80
32197;BME280;18697;42.770;23.400;2024-03-29T10:27:26;95688.16;;;26.26;28.66
32197;BME280;18697;42.770;23.400;2024-03-29T10:29:53;95689.53;;;26.40;27.88
32197;BME280;18697;42.770;23.400;2024-03-29T10:32:18;95695.41;;;26.57;28.13
32197;BME280;18697;42.770;23.400;2024-03-29T10:34:43;95692.38;;;26.55;26.76
32197;BME280;18697;42.770;23.400;2024-03-29T10:37:09;95700.91;;;26.55;27.36
32197;BME280;18697;42.770;23.400;2024-03-29T10:39:36;95681.56;;;26.61;29.65
32197;BME280;18697;42.770;23.400;2024-03-29T10:42:03;95689.72;;;26.57;28.53
32197;BME280;18697;42.770;23.400;2024-03-29T10:44:31;95680.03;;;26.68;27.36
32197;BME280;18697;42.770;23.400;2024-03-29T10:46:57;95674.91;;;26.74;28.49
32197;BME280;18697;42.770;23.400;2024-03-29T10:49:29;95672.94;;;26.84;27.93
32197;BME280;18697;42.770;23.400;2024-03-29T10:51:59;95679.03;;;27.03;26.85
32197;BME280;18697;42.770;23.400;2024-03-29T10:54:25;95675.41;;;27.03;28.27
32197;BME280;18697;42.770;23.400;2024-03-29T10:57:04;95679.97;;;26.91;27.71
32197;BME280;18697;42.770;23.400;2024-03-29T11:01:59;95681.72;;;26.71;27.65
32197;BME280;18697;42.770;23.400;2024-03-29T11:04:32;95664.97;;;26.82;28.77
32197;BME280;18697;42.770;23.400;2024-03-29T11:07:01;95666.09;;;27.02;27.61
32197;BME280;18697;42.770;23.400;2024-03-29T11:09:31;95674.28;;;26.98;26.84
32197;BME280;18697;42.770;23.400;2024-03-29T11:12:01;95657.91;;;27.14;27.61
32197;BME280;18697;42.770;23.400;2024-03-29T11:14:37;95657.19;;;26.98;28.05
32197;BME280;18697;42.770;23.400;2024-03-29T11:17:06;95654.09;;;27.11;28.22
32197;BME280;18697;42.770;23.400;2024-03-29T11:19:32;95652.75;;;27.20;28.78
32197;BME280;18697;42.770;23.400;2024-03-29T11:21:58;95661.09;;;27.26;27.66
32197;BME280;18697;42.770;23.400;2024-03-29T11:24:26;95648.56;;;27.21;28.01
32197;BME280;18697;42.770;23.400;2024-03-29T11:26:52;95654.66;;;27.17;27.63
32197;BME280;18697;42.770;23.400;2024-03-29T11:29:22;95647.38;;;27.32;27.94
32197;BME280;18697;42.770;23.400;2024-03-29T11:31:47;95640.44;;;27.50;28.99
32197;BME280;18697;42.770;23.400;2024-03-29T11:34:18;95641.16;;;27.66;27.79
32197;BME280;18697;42.770;23.400;2024-03-29T11:36:45;95644.41;;;27.62;26.70
32197;BME280;18697;42.770;23.400;2024-03-29T11:39:22;95652.66;;;27.43;28.01
32197;BME280;18697;42.770;23.400;2024-03-29T11:41:49;95634.22;;;27.44;28.96
32197;BME280;18697;42.770;23.400;2024-03-29T11:44:15;95635.91;;;27.47;28.79
32197;BME280;18697;42.770;23.400;2024-03-29T11:46:41;95626.53;;;27.54;28.19
32197;BME280;18697;42.770;23.400;2024-03-29T11:49:07;95619.09;;;27.59;28.55
32197;BME280;18697;42.770;23.400;2024-03-29T11:51:33;95615.28;;;27.64;28.45
32197;BME280;18697;42.770;23.400;2024-03-29T11:53:59;95618.50;;;27.68;28.21
32197;BME280;18697;42.770;23.400;2024-03-29T11:56:25;95612.81;;;27.68;28.86
32197;BME280;18697;42.770;23.400;2024-03-29T11:58:50;95621.97;;;27.91;27.66
32197;BME280;18697;42.770;23.400;2024-03-29T12:01:16;95617.69;;;28.07;27.23
32197;BME280;18697;42.770;23.400;2024-03-29T12:03:42;95616.84;;;28.22;28.13
32197;BME280;18697;42.770;23.400;2024-03-29T12:06:09;95611.91;;;28.15;28.60
32197;BME280;18697;42.770;23.400;2024-03-29T12:08:39;95608.94;;;28.05;27.30
32197;BME280;18697;42.770;23.400;2024-03-29T12:11:05;95622.28;;;28.03;27.32
32197;BME280;18697;42.770;23.400;2024-03-29T12:13:31;95615.47;;;27.98;27.31
32197;BME280;18697;42.770;23.400;2024-03-29T12:15:57;95620.59;;;28.00;27.12
32197;BME280;18697;42.770;23.400;2024-03-29T12:18:24;95619.19;;;27.84;26.42
32197;BME280;18697;42.770;23.400;2024-03-29T12:20:51;95614.81;;;27.83;27.68
32197;BME280;18697;42.770;23.400;2024-03-29T12:23:20;95611.97;;;28.07;27.14
32197;BME280;18697;42.770;23.400;2024-03-29T12:25:48;95614.31;;;27.69;27.55
32197;BME280;18697;42.770;23.400;2024-03-29T12:28:14;95604.03;;;27.98;27.13
32197;BME280;18697;42.770;23.400;2024-03-29T12:30:46;95606.00;;;27.88;26.40
32197;BME280;18697;42.770;23.400;2024-03-29T12:33:16;95600.53;;;27.83;26.82
32197;BME280;18697;42.770;23.400;2024-03-29T12:35:43;95603.38;;;27.83;26.51
32197;BME280;18697;42.770;23.400;2024-03-29T12:38:13;95609.81;;;27.91;26.60
32197;BME280;18697;42.770;23.400;2024-03-29T12:40:41;95614.66;;;28.05;25.46
32197;BME280;18697;42.770;23.400;2024-03-29T12:43:08;95604.22;;;28.25;27.76
32197;BME280;18697;42.770;23.400;2024-03-29T12:45:34;95610.97;;;28.37;26.89
32197;BME280;18697;42.770;23.400;2024-03-29T12:48:01;95607.25;;;28.27;25.95